sensor_id;sensor_type;location;lat;lon;timestamp;temperature;humidity
18281;DHT22;9266;51.132;17.062;2024-02-28T00:01:17;7.20;99.90
18281;DHT22;9266;51.132;17.062;2024-02-28T00:03:44;7.20;99.90
18281;DHT22;9266;51.132;17.062;2024-02-28T00:06:11;7.30;99.90
18281;DHT22;9266;51.132;17.062;2024-02-28T00:08:38;7.20;99.90
18281;DHT22;9266;51.132;17.062;2024-02-28T00:11:05;7.20;99.90
18281;DHT22;9266;51.132;17.062;2024-02-28T00:13:32;7.40;99.90
18281;DHT22;9266;51.132;17.062;2024-02-28T00:15:59;7.40;99.90
18281;DHT22;9266;51.132;17.062;2024-02-28T00:18:27;7.40;99.90
18281;DHT22;9266;51.132;17.062;2024-02-28T00:20:55;7.40;99.90
18281;DHT22;9266;51.132;17.062;2024-02-28T00:23:22;7.30;99.90
18281;DHT22;9266;51.132;17.062;2024-02-28T00:25:49;7.30;99.90
18281;DHT22;9266;51.132;17.062;2024-02-28T00:28:16;7.30;99.90
18281;DHT22;9266;51.132;17.062;2024-02-28T00:30:44;7.30;99.90
18281;DHT22;9266;51.132;17.062;2024-02-28T00:33:11;7.20;99.90
18281;DHT22;9266;51.132;17.062;2024-02-28T00:35:40;7.20;99.90
18281;DHT22;9266;51.132;17.062;2024-02-28T00:38:07;7.10;99.90
18281;DHT22;9266;51.132;17.062;2024-02-28T00:40:34;7.20;99.90
18281;DHT22;9266;51.132;17.062;2024-02-28T00:43:01;7.30;99.90
18281;DHT22;9266;51.132;17.062;2024-02-28T00:45:28;7.40;99.90
18281;DHT22;9266;51.132;17.062;2024-02-28T00:47:55;7.30;99.90
18281;DHT22;9266;51.132;17.062;2024-02-28T00:50:22;7.20;99.90
18281;DHT22;9266;51.132;17.062;2024-02-28T00:52:50;7.30;99.90
18281;DHT22;9266;51.132;17.062;2024-02-28T00:55:17;7.30;99.90
18281;DHT22;9266;51.132;17.062;2024-02-28T00:57:45;7.30;99.90
18281;DHT22;9266;51.132;17.062;2024-02-28T01:00:12;7.30;99.90
18281;DHT22;9266;51.132;17.062;2024-02-28T01:02:40;7.20;99.90
18281;DHT22;9266;51.132;17.062;2024-02-28T01:05:08;7.30;99.90
18281;DHT22;9266;51.132;17.062;2024-02-28T01:07:35;7.30;99.90
18281;DHT22;9266;51.132;17.062;2024-02-28T01:10:04;7.30;99.90
18281;DHT22;9266;51.132;17.062;2024-02-28T01:12:31;7.20;99.90
18281;DHT22;9266;51.132;17.062;2024-02-28T01:14:58;7.20;99.90
18281;DHT22;9266;51.132;17.062;2024-02-28T01:17:25;7.20;99.90
18281;DHT22;9266;51.132;17.062;2024-02-28T01:19:52;7.30;99.90
18281;DHT22;9266;51.132;17.062;2024-02-28T01:22:19;7.30;99.90
18281;DHT22;9266;51.132;17.062;2024-02-28T01:24:46;7.30;99.90
18281;DHT22;9266;51.132;17.062;2024-02-28T01:27:15;7.30;99.90
18281;DHT22;9266;51.132;17.062;2024-02-28T01:29:42;7.30;99.90
18281;DHT22;9266;51.132;17.062;2024-02-28T01:32:09;7.20;99.90
18281;DHT22;9266;51.132;17.062;2024-02-28T01:34:36;7.30;99.90
18281;DHT22;9266;51.132;17.062;2024-02-28T01:37:03;7.30;99.90
18281;DHT22;9266;51.132;17.062;2024-02-28T01:39:30;7.20;99.90
18281;DHT22;9266;51.132;17.062;2024-02-28T01:41:57;7.30;99.90
18281;DHT22;9266;51.132;17.062;2024-02-28T01:44:25;7.30;99.90
18281;DHT22;9266;51.132;17.062;2024-02-28T01:46:52;7.30;99.90
18281;DHT22;9266;51.132;17.062;2024-02-28T01:49:20;7.30;99.90
18281;DHT22;9266;51.132;17.062;2024-02-28T01:51:47;7.30;99.90
18281;DHT22;9266;51.132;17.062;2024-02-28T01:54:15;7.30;99.90
18281;DHT22;9266;51.132;17.062;2024-02-28T01:56:43;7.40;99.90
18281;DHT22;9266;51.132;17.062;2024-02-28T01:59:10;7.50;99.90
18281;DHT22;9266;51.132;17.062;2024-02-28T02:01:39;7.40;99.90
18281;DHT22;9266;51.132;17.062;2024-02-28T02:04:06;7.50;99.90
18281;DHT22;9266;51.132;17.062;2024-02-28T02:06:33;7.40;99.90
18281;DHT22;9266;51.132;17.062;2024-02-28T02:09:04;7.40;99.90
18281;DHT22;9266;51.132;17.062;2024-02-28T02:11:31;6.90;99.90
18281;DHT22;9266;51.132;17.062;2024-02-28T02:13:59;7.30;99.90
18281;DHT22;9266;51.132;17.062;2024-02-28T02:16:26;7.30;99.90
18281;DHT22;9266;51.132;17.062;2024-02-28T02:18:54;7.30;99.90
18281;DHT22;9266;51.132;17.062;2024-02-28T02:21:23;7.20;99.90
18281;DHT22;9266;51.132;17.062;2024-02-28T02:23:52;7.20;99.90
18281;DHT22;9266;51.132;17.062;2024-02-28T02:26:19;7.20;99.90
18281;DHT22;9266;51.132;17.062;2024-02-28T02:28:46;8.40;99.90
18281;DHT22;9266;51.132;17.062;2024-02-28T02:31:14;7.20;99.90
18281;DHT22;9266;51.132;17.062;2024-02-28T02:33:41;7.20;99.90
18281;DHT22;9266;51.132;17.062;2024-02-28T02:36:08;7.10;99.90
18281;DHT22;9266;51.132;17.062;2024-02-28T02:38:35;7.20;99.90
18281;DHT22;9266;51.132;17.062;2024-02-28T02:41:03;7.20;99.90
18281;DHT22;9266;51.132;17.062;2024-02-28T02:43:30;7.20;99.90
18281;DHT22;9266;51.132;17.062;2024-02-28T02:45:57;7.20;99.90
18281;DHT22;9266;51.132;17.062;2024-02-28T02:48:24;7.30;99.90
18281;DHT22;9266;51.132;17.062;2024-02-28T02:50:51;7.20;99.90
18281;DHT22;9266;51.132;17.062;2024-02-28T02:53:18;7.10;99.90
18281;DHT22;9266;51.132;17.062;2024-02-28T02:55:46;7.10;99.90
18281;DHT22;9266;51.132;17.062;2024-02-28T02:58:14;7.10;99.90
18281;DHT22;9266;51.132;17.062;2024-02-28T03:00:41;7.10;99.90
18281;DHT22;9266;51.132;17.062;2024-02-28T03:03:08;7.10;99.90
18281;DHT22;9266;51.132;17.062;2024-02-28T03:05:35;7.10;99.90
18281;DHT22;9266;51.132;17.062;2024-02-28T03:08:02;7.10;99.90
18281;DHT22;9266;51.132;17.062;2024-02-28T03:10:29;7.10;99.90
18281;DHT22;9266;51.132;17.062;2024-02-28T03:12:56;7.10;99.90
18281;DHT22;9266;51.132;17.062;2024-02-28T03:15:25;7.10;99.90
18281;DHT22;9266;51.132;17.062;2024-02-28T03:17:52;7.10;99.90
18281;DHT22;9266;51.132;17.062;2024-02-28T03:20:19;7.20;99.90
18281;DHT22;9266;51.132;17.062;2024-02-28T03:22:46;7.30;99.90
18281;DHT22;9266;51.132;17.062;2024-02-28T03:25:13;7.20;99.90
18281;DHT22;9266;51.132;17.062;2024-02-28T03:27:41;7.20;99.90
18281;DHT22;9266;51.132;17.062;2024-02-28T03:30:08;7.20;99.90
18281;DHT22;9266;51.132;17.062;2024-02-28T03:32:37;7.20;99.90
18281;DHT22;9266;51.132;17.062;2024-02-28T03:35:04;7.20;99.90
18281;DHT22;9266;51.132;17.062;2024-02-28T03:37:34;7.20;99.90
18281;DHT22;9266;51.132;17.062;2024-02-28T03:40:01;7.20;99.90
18281;DHT22;9266;51.132;17.062;2024-02-28T03:42:28;7.30;99.90
18281;DHT22;9266;51.132;17.062;2024-02-28T03:44:55;7.30;99.90
18281;DHT22;9266;51.132;17.062;2024-02-28T03:47:22;7.30;99.90
18281;DHT22;9266;51.132;17.062;2024-02-28T03:49:51;7.30;99.90
18281;DHT22;9266;51.132;17.062;2024-02-28T03:52:18;7.20;99.90
18281;DHT22;9266;51.132;17.062;2024-02-28T03:54:45;7.40;99.90
18281;DHT22;9266;51.132;17.062;2024-02-28T03:57:12;7.40;99.90
18281;DHT22;9266;51.132;17.062;2024-02-28T03:59:40;7.40;99.90
18281;DHT22;9266;51.132;17.062;2024-02-28T04:02:07;8.10;99.90
18281;DHT22;9266;51.132;17.062;2024-02-28T04:04:34;7.40;99.90
18281;DHT22;9266;51.132;17.062;2024-02-28T04:07:03;7.40;99.90
18281;DHT22;9266;51.132;17.062;2024-02-28T04:09:29;7.40;99.90
18281;DHT22;9266;51.132;17.062;2024-02-28T04:11:57;7.40;99.90
18281;DHT22;9266;51.132;17.062;2024-02-28T04:14:24;7.40;99.90
18281;DHT22;9266;51.132;17.062;2024-02-28T04:16:50;7.50;99.90
18281;DHT22;9266;51.132;17.062;2024-02-28T04:19:17;7.40;99.90
18281;DHT22;9266;51.132;17.062;2024-02-28T04:21:45;7.50;99.90
18281;DHT22;9266;51.132;17.062;2024-02-28T04:24:13;7.40;99.90
18281;DHT22;9266;51.132;17.062;2024-02-28T04:26:40;7.50;99.90
18281;DHT22;9266;51.132;17.062;2024-02-28T04:29:07;7.50;99.90
18281;DHT22;9266;51.132;17.062;2024-02-28T04:31:39;7.40;99.90
18281;DHT22;9266;51.132;17.062;2024-02-28T04:34:06;7.40;99.90
18281;DHT22;9266;51.132;17.062;2024-02-28T04:36:33;7.40;99.90
18281;DHT22;9266;51.132;17.062;2024-02-28T04:39:00;7.40;99.90
18281;DHT22;9266;51.132;17.062;2024-02-28T04:41:31;7.40;99.90
18281;DHT22;9266;51.132;17.062;2024-02-28T04:43:58;7.50;99.90
18281;DHT22;9266;51.132;17.062;2024-02-28T04:46:25;7.50;99.90
18281;DHT22;9266;51.132;17.062;2024-02-28T04:48:52;7.40;99.90
18281;DHT22;9266;51.132;17.062;2024-02-28T04:51:19;7.40;99.90
18281;DHT22;9266;51.132;17.062;2024-02-28T04:53:46;7.50;99.90
18281;DHT22;9266;51.132;17.062;2024-02-28T04:56:13;7.50;99.90
18281;DHT22;9266;51.132;17.062;2024-02-28T04:58:42;7.40;99.90
18281;DHT22;9266;51.132;17.062;2024-02-28T05:01:09;7.50;99.90
18281;DHT22;9266;51.132;17.062;2024-02-28T05:03:36;7.40;99.90
18281;DHT22;9266;51.132;17.062;2024-02-28T05:06:03;7.40;99.90
18281;DHT22;9266;51.132;17.062;2024-02-28T05:08:30;7.40;99.90
18281;DHT22;9266;51.132;17.062;2024-02-28T05:10:57;7.30;99.90
18281;DHT22;9266;51.132;17.062;2024-02-28T05:13:24;7.30;99.90
18281;DHT22;9266;51.132;17.062;2024-02-28T05:15:52;7.30;99.90
18281;DHT22;9266;51.132;17.062;2024-02-28T05:18:19;7.30;99.90
18281;DHT22;9266;51.132;17.062;2024-02-28T05:20:46;7.30;99.90
18281;DHT22;9266;51.132;17.062;2024-02-28T05:23:13;8.60;99.90
18281;DHT22;9266;51.132;17.062;2024-02-28T05:25:40;7.20;99.90
18281;DHT22;9266;51.132;17.062;2024-02-28T05:28:07;7.20;99.90
18281;DHT22;9266;51.132;17.062;2024-02-28T05:30:34;7.30;99.90
18281;DHT22;9266;51.132;17.062;2024-02-28T05:33:03;7.20;99.90
18281;DHT22;9266;51.132;17.062;2024-02-28T05:35:30;7.20;99.90
18281;DHT22;9266;51.132;17.062;2024-02-28T05:37:57;7.20;99.90
18281;DHT22;9266;51.132;17.062;2024-02-28T05:40:24;7.20;99.90
18281;DHT22;9266;51.132;17.062;2024-02-28T05:42:51;7.20;99.90
18281;DHT22;9266;51.132;17.062;2024-02-28T05:45:18;7.20;99.90
18281;DHT22;9266;51.132;17.062;2024-02-28T05:47:45;7.20;99.90
18281;DHT22;9266;51.132;17.062;2024-02-28T05:50:14;7.20;99.90
18281;DHT22;9266;51.132;17.062;2024-02-28T05:52:41;7.20;99.90
18281;DHT22;9266;51.132;17.062;2024-02-28T05:55:09;7.20;99.90
18281;DHT22;9266;51.132;17.062;2024-02-28T05:57:36;7.20;99.90
18281;DHT22;9266;51.132;17.062;2024-02-28T06:00:03;7.20;99.90
18281;DHT22;9266;51.132;17.062;2024-02-28T06:02:35;7.20;99.90
18281;DHT22;9266;51.132;17.062;2024-02-28T06:05:03;7.20;99.90
18281;DHT22;9266;51.132;17.062;2024-02-28T06:07:31;7.30;99.90
18281;DHT22;9266;51.132;17.062;2024-02-28T06:09:58;7.30;99.90
18281;DHT22;9266;51.132;17.062;2024-02-28T06:12:25;7.20;99.90
18281;DHT22;9266;51.132;17.062;2024-02-28T06:14:52;7.30;99.90
18281;DHT22;9266;51.132;17.062;2024-02-28T06:17:20;7.30;99.90
18281;DHT22;9266;51.132;17.062;2024-02-28T06:19:47;7.30;99.90
18281;DHT22;9266;51.132;17.062;2024-02-28T06:22:14;6.80;99.90
18281;DHT22;9266;51.132;17.062;2024-02-28T06:24:45;7.30;99.90
18281;DHT22;9266;51.132;17.062;2024-02-28T06:27:12;7.30;99.90
18281;DHT22;9266;51.132;17.062;2024-02-28T06:29:39;7.30;99.90
18281;DHT22;9266;51.132;17.062;2024-02-28T06:32:06;7.30;99.90
18281;DHT22;9266;51.132;17.062;2024-02-28T06:34:33;7.30;99.90
18281;DHT22;9266;51.132;17.062;2024-02-28T06:37:00;7.30;99.90
18281;DHT22;9266;51.132;17.062;2024-02-28T06:39:27;7.30;99.90
18281;DHT22;9266;51.132;17.062;2024-02-28T06:41:56;7.30;99.90
18281;DHT22;9266;51.132;17.062;2024-02-28T06:44:23;7.40;99.90
18281;DHT22;9266;51.132;17.062;2024-02-28T06:46:50;7.40;99.90
18281;DHT22;9266;51.132;17.062;2024-02-28T06:49:17;7.30;99.90
18281;DHT22;9266;51.132;17.062;2024-02-28T06:51:45;7.30;99.90
18281;DHT22;9266;51.132;17.062;2024-02-28T06:54:12;7.40;99.90
18281;DHT22;9266;51.132;17.062;2024-02-28T06:56:39;6.40;99.90
18281;DHT22;9266;51.132;17.062;2024-02-28T06:59:07;7.40;99.90
18281;DHT22;9266;51.132;17.062;2024-02-28T07:01:34;7.50;99.90
18281;DHT22;9266;51.132;17.062;2024-02-28T07:04:01;7.50;99.90
18281;DHT22;9266;51.132;17.062;2024-02-28T07:06:28;7.50;99.90
18281;DHT22;9266;51.132;17.062;2024-02-28T07:08:55;7.50;99.90
18281;DHT22;9266;51.132;17.062;2024-02-28T07:11:22;7.60;99.90
18281;DHT22;9266;51.132;17.062;2024-02-28T07:13:50;7.60;99.90
18281;DHT22;9266;51.132;17.062;2024-02-28T07:16:18;7.60;99.90
18281;DHT22;9266;51.132;17.062;2024-02-28T07:18:45;7.60;99.90
18281;DHT22;9266;51.132;17.062;2024-02-28T07:21:12;7.60;99.90
18281;DHT22;9266;51.132;17.062;2024-02-28T07:23:39;7.60;99.90
18281;DHT22;9266;51.132;17.062;2024-02-28T07:26:08;7.70;99.90
18281;DHT22;9266;51.132;17.062;2024-02-28T07:28:35;7.60;99.90
18281;DHT22;9266;51.132;17.062;2024-02-28T07:31:03;7.60;99.90
18281;DHT22;9266;51.132;17.062;2024-02-28T07:33:31;7.70;99.90
18281;DHT22;9266;51.132;17.062;2024-02-28T07:35:58;7.70;99.90
18281;DHT22;9266;51.132;17.062;2024-02-28T07:38:26;7.60;99.90
18281;DHT22;9266;51.132;17.062;2024-02-28T07:40:54;7.70;99.90
18281;DHT22;9266;51.132;17.062;2024-02-28T07:43:21;7.70;99.90
18281;DHT22;9266;51.132;17.062;2024-02-28T07:45:48;7.70;99.90
18281;DHT22;9266;51.132;17.062;2024-02-28T07:48:15;7.70;99.90
18281;DHT22;9266;51.132;17.062;2024-02-28T07:50:44;7.80;99.90
18281;DHT22;9266;51.132;17.062;2024-02-28T07:53:11;7.80;99.90
18281;DHT22;9266;51.132;17.062;2024-02-28T07:55:39;7.80;99.90
18281;DHT22;9266;51.132;17.062;2024-02-28T07:58:06;7.80;99.90
18281;DHT22;9266;51.132;17.062;2024-02-28T08:00:33;7.80;99.90
18281;DHT22;9266;51.132;17.062;2024-02-28T08:03:00;7.80;99.90
18281;DHT22;9266;51.132;17.062;2024-02-28T08:05:27;7.80;99.90
18281;DHT22;9266;51.132;17.062;2024-02-28T08:07:57;7.90;99.90
18281;DHT22;9266;51.132;17.062;2024-02-28T08:10:23;8.00;99.90
18281;DHT22;9266;51.132;17.062;2024-02-28T08:12:50;7.90;99.90
18281;DHT22;9266;51.132;17.062;2024-02-28T08:15:17;7.90;99.90
18281;DHT22;9266;51.132;17.062;2024-02-28T08:17:44;8.00;99.90
18281;DHT22;9266;51.132;17.062;2024-02-28T08:20:12;8.00;99.90
18281;DHT22;9266;51.132;17.062;2024-02-28T08:22:39;8.10;99.90
18281;DHT22;9266;51.132;17.062;2024-02-28T08:25:08;8.10;99.90
18281;DHT22;9266;51.132;17.062;2024-02-28T08:27:36;8.10;99.90
18281;DHT22;9266;51.132;17.062;2024-02-28T08:30:05;8.00;99.90
18281;DHT22;9266;51.132;17.062;2024-02-28T08:32:32;7.90;99.90
18281;DHT22;9266;51.132;17.062;2024-02-28T08:34:59;7.90;99.90
18281;DHT22;9266;51.132;17.062;2024-02-28T08:37:27;7.90;99.90
18281;DHT22;9266;51.132;17.062;2024-02-28T08:39:54;8.00;99.90
18281;DHT22;9266;51.132;17.062;2024-02-28T08:42:24;8.10;99.90
18281;DHT22;9266;51.132;17.062;2024-02-28T08:44:52;8.00;99.90
18281;DHT22;9266;51.132;17.062;2024-02-28T08:47:23;8.10;99.90
18281;DHT22;9266;51.132;17.062;2024-02-28T08:49:50;7.90;99.90
18281;DHT22;9266;51.132;17.062;2024-02-28T08:52:17;8.00;99.90
18281;DHT22;9266;51.132;17.062;2024-02-28T08:54:44;7.40;99.90
18281;DHT22;9266;51.132;17.062;2024-02-28T08:57:11;8.00;99.90
18281;DHT22;9266;51.132;17.062;2024-02-28T08:59:40;8.00;99.90
18281;DHT22;9266;51.132;17.062;2024-02-28T09:02:07;8.00;99.90
18281;DHT22;9266;51.132;17.062;2024-02-28T09:04:36;8.00;99.90
18281;DHT22;9266;51.132;17.062;2024-02-28T09:07:04;8.10;99.90
18281;DHT22;9266;51.132;17.062;2024-02-28T09:09:31;8.20;99.90
18281;DHT22;9266;51.132;17.062;2024-02-28T09:12:02;8.20;99.90
18281;DHT22;9266;51.132;17.062;2024-02-28T09:14:29;8.10;99.90
18281;DHT22;9266;51.132;17.062;2024-02-28T09:16:58;8.20;99.90
18281;DHT22;9266;51.132;17.062;2024-02-28T09:19:29;8.20;99.90
18281;DHT22;9266;51.132;17.062;2024-02-28T09:21:56;8.20;99.90
18281;DHT22;9266;51.132;17.062;2024-02-28T09:24:24;8.10;99.90
18281;DHT22;9266;51.132;17.062;2024-02-28T09:26:51;8.10;99.90
18281;DHT22;9266;51.132;17.062;2024-02-28T09:29:18;8.10;99.90
18281;DHT22;9266;51.132;17.062;2024-02-28T09:31:45;8.10;99.90
18281;DHT22;9266;51.132;17.062;2024-02-28T09:34:14;8.10;99.90
18281;DHT22;9266;51.132;17.062;2024-02-28T09:36:41;8.10;99.90
18281;DHT22;9266;51.132;17.062;2024-02-28T09:39:10;8.10;99.90
18281;DHT22;9266;51.132;17.062;2024-02-28T09:41:38;8.00;99.90
18281;DHT22;9266;51.132;17.062;2024-02-28T09:44:06;8.00;99.90
18281;DHT22;9266;51.132;17.062;2024-02-28T09:46:34;8.00;99.90
18281;DHT22;9266;51.132;17.062;2024-02-28T09:49:03;7.90;99.90
18281;DHT22;9266;51.132;17.062;2024-02-28T09:51:33;7.90;99.90
18281;DHT22;9266;51.132;17.062;2024-02-28T09:54:00;7.90;99.90
18281;DHT22;9266;51.132;17.062;2024-02-28T09:56:28;7.80;99.90
18281;DHT22;9266;51.132;17.062;2024-02-28T09:58:56;7.70;99.90
18281;DHT22;9266;51.132;17.062;2024-02-28T10:01:23;7.70;99.90
18281;DHT22;9266;51.132;17.062;2024-02-28T10:03:51;7.70;99.90
18281;DHT22;9266;51.132;17.062;2024-02-28T10:06:19;7.80;99.90
18281;DHT22;9266;51.132;17.062;2024-02-28T10:08:47;7.80;99.90
18281;DHT22;9266;51.132;17.062;2024-02-28T10:11:18;7.90;99.90
18281;DHT22;9266;51.132;17.062;2024-02-28T10:13:44;7.80;99.90
18281;DHT22;9266;51.132;17.062;2024-02-28T10:16:11;7.80;99.90
18281;DHT22;9266;51.132;17.062;2024-02-28T10:18:38;7.80;99.90
18281;DHT22;9266;51.132;17.062;2024-02-28T10:21:04;8.70;99.90
18281;DHT22;9266;51.132;17.062;2024-02-28T10:23:31;7.80;99.90
18281;DHT22;9266;51.132;17.062;2024-02-28T10:26:01;7.70;99.90
18281;DHT22;9266;51.132;17.062;2024-02-28T10:28:28;7.80;99.90
18281;DHT22;9266;51.132;17.062;2024-02-28T10:30:56;7.90;99.90
18281;DHT22;9266;51.132;17.062;2024-02-28T10:33:26;7.80;99.90
18281;DHT22;9266;51.132;17.062;2024-02-28T10:35:55;7.70;99.90
18281;DHT22;9266;51.132;17.062;2024-02-28T10:38:23;7.60;99.90
18281;DHT22;9266;51.132;17.062;2024-02-28T10:40:52;7.50;99.90
18281;DHT22;9266;51.132;17.062;2024-02-28T10:43:21;7.60;99.90
18281;DHT22;9266;51.132;17.062;2024-02-28T10:45:50;7.70;99.90
18281;DHT22;9266;51.132;17.062;2024-02-28T10:48:18;7.60;99.90
18281;DHT22;9266;51.132;17.062;2024-02-28T10:50:47;7.60;99.90
18281;DHT22;9266;51.132;17.062;2024-02-28T10:53:14;7.60;99.90
18281;DHT22;9266;51.132;17.062;2024-02-28T10:55:43;6.70;99.90
18281;DHT22;9266;51.132;17.062;2024-02-28T10:58:14;7.50;99.90
18281;DHT22;9266;51.132;17.062;2024-02-28T11:00:43;7.40;99.90
18281;DHT22;9266;51.132;17.062;2024-02-28T11:03:13;7.40;99.90
18281;DHT22;9266;51.132;17.062;2024-02-28T11:05:41;7.40;99.90
18281;DHT22;9266;51.132;17.062;2024-02-28T11:08:19;7.40;99.90
18281;DHT22;9266;51.132;17.062;2024-02-28T11:10:53;7.30;99.90
18281;DHT22;9266;51.132;17.062;2024-02-28T11:13:24;7.30;99.90
18281;DHT22;9266;51.132;17.062;2024-02-28T11:15:53;7.20;99.90
18281;DHT22;9266;51.132;17.062;2024-02-28T11:18:21;7.20;99.90
18281;DHT22;9266;51.132;17.062;2024-02-28T11:20:49;7.30;99.90
18281;DHT22;9266;51.132;17.062;2024-02-28T11:23:17;7.20;99.90
18281;DHT22;9266;51.132;17.062;2024-02-28T11:25:44;7.30;99.90
18281;DHT22;9266;51.132;17.062;2024-02-28T11:28:11;6.40;99.90
18281;DHT22;9266;51.132;17.062;2024-02-28T11:30:38;7.20;99.90
18281;DHT22;9266;51.132;17.062;2024-02-28T11:33:08;7.30;99.90
18281;DHT22;9266;51.132;17.062;2024-02-28T11:35:35;7.30;99.90
18281;DHT22;9266;51.132;17.062;2024-02-28T11:38:02;7.20;99.90
18281;DHT22;9266;51.132;17.062;2024-02-28T11:40:32;7.20;99.90
18281;DHT22;9266;51.132;17.062;2024-02-28T11:43:01;7.20;99.90
18281;DHT22;9266;51.132;17.062;2024-02-28T11:45:29;7.20;99.90
18281;DHT22;9266;51.132;17.062;2024-02-28T11:47:57;7.30;99.90
18281;DHT22;9266;51.132;17.062;2024-02-28T11:50:25;7.40;99.90
18281;DHT22;9266;51.132;17.062;2024-02-28T11:52:55;7.30;99.90
18281;DHT22;9266;51.132;17.062;2024-02-28T11:55:25;7.30;99.90
18281;DHT22;9266;51.132;17.062;2024-02-28T11:57:51;7.20;99.90
18281;DHT22;9266;51.132;17.062;2024-02-28T12:00:19;7.20;99.90
18281;DHT22;9266;51.132;17.062;2024-02-28T12:02:46;7.50;99.90
18281;DHT22;9266;51.132;17.062;2024-02-28T12:05:13;7.50;99.90
18281;DHT22;9266;51.132;17.062;2024-02-28T12:07:41;7.40;99.90
18281;DHT22;9266;51.132;17.062;2024-02-28T12:10:09;7.40;99.90
18281;DHT22;9266;51.132;17.062;2024-02-28T12:12:36;7.40;99.90
18281;DHT22;9266;51.132;17.062;2024-02-28T12:15:05;7.20;99.90
18281;DHT22;9266;51.132;17.062;2024-02-28T12:17:33;7.20;99.90
18281;DHT22;9266;51.132;17.062;2024-02-28T12:20:04;7.30;99.90
18281;DHT22;9266;51.132;17.062;2024-02-28T12:22:31;7.20;99.90
18281;DHT22;9266;51.132;17.062;2024-02-28T12:25:01;7.20;99.90
18281;DHT22;9266;51.132;17.062;2024-02-28T12:27:30;7.20;99.90
18281;DHT22;9266;51.132;17.062;2024-02-28T12:29:57;7.20;99.90
18281;DHT22;9266;51.132;17.062;2024-02-28T12:32:24;7.20;99.90
18281;DHT22;9266;51.132;17.062;2024-02-28T12:34:51;7.20;99.90
18281;DHT22;9266;51.132;17.062;2024-02-28T12:37:19;7.20;99.90
18281;DHT22;9266;51.132;17.062;2024-02-28T12:39:46;7.20;99.90
18281;DHT22;9266;51.132;17.062;2024-02-28T12:42:15;7.10;99.90
18281;DHT22;9266;51.132;17.062;2024-02-28T12:44:42;7.10;99.90
18281;DHT22;9266;51.132;17.062;2024-02-28T12:47:11;7.10;99.90
18281;DHT22;9266;51.132;17.062;2024-02-28T12:49:38;7.10;99.90
18281;DHT22;9266;51.132;17.062;2024-02-28T12:52:05;7.10;99.90
18281;DHT22;9266;51.132;17.062;2024-02-28T12:54:32;7.10;99.90
18281;DHT22;9266;51.132;17.062;2024-02-28T12:57:00;7.00;99.90
18281;DHT22;9266;51.132;17.062;2024-02-28T12:59:32;7.00;99.90
18281;DHT22;9266;51.132;17.062;2024-02-28T13:01:59;7.00;99.90
18281;DHT22;9266;51.132;17.062;2024-02-28T13:04:26;6.90;99.90
18281;DHT22;9266;51.132;17.062;2024-02-28T13:06:54;6.80;99.90
18281;DHT22;9266;51.132;17.062;2024-02-28T13:09:21;6.90;99.90
18281;DHT22;9266;51.132;17.062;2024-02-28T13:11:49;6.90;99.90
18281;DHT22;9266;51.132;17.062;2024-02-28T13:14:16;6.80;99.90
18281;DHT22;9266;51.132;17.062;2024-02-28T13:16:44;6.70;99.90
18281;DHT22;9266;51.132;17.062;2024-02-28T13:19:11;6.80;99.90
18281;DHT22;9266;51.132;17.062;2024-02-28T13:21:39;6.70;99.90
18281;DHT22;9266;51.132;17.062;2024-02-28T13:24:06;6.60;99.90
18281;DHT22;9266;51.132;17.062;2024-02-28T13:26:33;6.60;99.90
18281;DHT22;9266;51.132;17.062;2024-02-28T13:29:01;6.60;99.90
18281;DHT22;9266;51.132;17.062;2024-02-28T13:31:28;6.60;99.90
18281;DHT22;9266;51.132;17.062;2024-02-28T13:33:57;6.70;99.90
18281;DHT22;9266;51.132;17.062;2024-02-28T13:36:24;6.70;99.90
18281;DHT22;9266;51.132;17.062;2024-02-28T13:38:51;6.70;99.90
18281;DHT22;9266;51.132;17.062;2024-02-28T13:41:18;6.60;99.90
18281;DHT22;9266;51.132;17.062;2024-02-28T13:43:45;6.60;99.90
18281;DHT22;9266;51.132;17.062;2024-02-28T13:46:12;6.60;99.90
18281;DHT22;9266;51.132;17.062;2024-02-28T13:48:40;6.60;99.90
18281;DHT22;9266;51.132;17.062;2024-02-28T13:51:08;6.50;99.90
18281;DHT22;9266;51.132;17.062;2024-02-28T13:53:35;6.50;99.90
18281;DHT22;9266;51.132;17.062;2024-02-28T13:56:03;6.50;99.90
18281;DHT22;9266;51.132;17.062;2024-02-28T13:58:31;6.50;99.90
18281;DHT22;9266;51.132;17.062;2024-02-28T14:00:58;6.50;99.90
18281;DHT22;9266;51.132;17.062;2024-02-28T14:03:24;6.40;99.90
18281;DHT22;9266;51.132;17.062;2024-02-28T14:05:51;6.50;99.90
18281;DHT22;9266;51.132;17.062;2024-02-28T14:08:19;7.40;99.90
18281;DHT22;9266;51.132;17.062;2024-02-28T14:10:46;6.50;99.90
18281;DHT22;9266;51.132;17.062;2024-02-28T14:13:13;6.40;99.90
18281;DHT22;9266;51.132;17.062;2024-02-28T14:15:43;6.40;99.90
18281;DHT22;9266;51.132;17.062;2024-02-28T14:18:11;6.40;99.90
18281;DHT22;9266;51.132;17.062;2024-02-28T14:20:38;6.30;99.90
18281;DHT22;9266;51.132;17.062;2024-02-28T14:23:05;6.30;99.90
18281;DHT22;9266;51.132;17.062;2024-02-28T14:25:34;6.40;99.90
18281;DHT22;9266;51.132;17.062;2024-02-28T14:28:00;6.30;99.90
18281;DHT22;9266;51.132;17.062;2024-02-28T14:30:27;6.30;99.90
18281;DHT22;9266;51.132;17.062;2024-02-28T14:32:54;6.40;99.90
18281;DHT22;9266;51.132;17.062;2024-02-28T14:35:21;6.30;99.90
18281;DHT22;9266;51.132;17.062;2024-02-28T14:37:48;6.20;99.90
18281;DHT22;9266;51.132;17.062;2024-02-28T14:40:18;6.30;99.90
18281;DHT22;9266;51.132;17.062;2024-02-28T14:42:47;6.20;99.90
18281;DHT22;9266;51.132;17.062;2024-02-28T14:45:14;6.30;99.90
18281;DHT22;9266;51.132;17.062;2024-02-28T14:47:41;6.30;99.90
18281;DHT22;9266;51.132;17.062;2024-02-28T14:50:09;6.30;99.90
18281;DHT22;9266;51.132;17.062;2024-02-28T14:52:38;6.20;99.90
18281;DHT22;9266;51.132;17.062;2024-02-28T14:55:06;6.30;99.90
18281;DHT22;9266;51.132;17.062;2024-02-28T14:57:36;6.30;99.90
18281;DHT22;9266;51.132;17.062;2024-02-28T15:00:07;6.20;99.90
18281;DHT22;9266;51.132;17.062;2024-02-28T15:02:39;6.20;99.90
18281;DHT22;9266;51.132;17.062;2024-02-28T15:05:07;6.20;99.90
18281;DHT22;9266;51.132;17.062;2024-02-28T15:07:35;6.20;99.90
18281;DHT22;9266;51.132;17.062;2024-02-28T15:10:06;6.30;99.90
18281;DHT22;9266;51.132;17.062;2024-02-28T15:12:34;6.20;99.90
18281;DHT22;9266;51.132;17.062;2024-02-28T15:15:05;6.30;99.90
18281;DHT22;9266;51.132;17.062;2024-02-28T15:17:32;6.30;99.90
18281;DHT22;9266;51.132;17.062;2024-02-28T15:20:00;7.50;99.90
18281;DHT22;9266;51.132;17.062;2024-02-28T15:22:29;6.20;99.90
18281;DHT22;9266;51.132;17.062;2024-02-28T15:24:56;6.20;99.90
18281;DHT22;9266;51.132;17.062;2024-02-28T15:27:23;6.20;99.90
18281;DHT22;9266;51.132;17.062;2024-02-28T15:29:50;6.20;99.90
18281;DHT22;9266;51.132;17.062;2024-02-28T15:32:18;6.20;99.90
18281;DHT22;9266;51.132;17.062;2024-02-28T15:34:45;6.10;99.90
18281;DHT22;9266;51.132;17.062;2024-02-28T15:37:12;6.20;99.90
18281;DHT22;9266;51.132;17.062;2024-02-28T15:39:39;6.20;99.90
18281;DHT22;9266;51.132;17.062;2024-02-28T15:42:07;6.20;99.90
18281;DHT22;9266;51.132;17.062;2024-02-28T15:44:35;6.20;99.90
18281;DHT22;9266;51.132;17.062;2024-02-28T15:47:03;6.20;99.90